Time;durP1;ratioP1;P1;durP2;ratioP2;P2;SDS_P1;SDS_P2;PMS_P1;PMS_P2;Temp;Humidity;BMP_temperature;BMP_pressure;BME280_temperature;BME280_humidity;BME280_pressure;Samples;Min_cycle;Max_cycle;Signal;HPM_P1;HPM_P2
2022/09/20 00:02:30;;;;;;;2.50;0.97;;;7.70;99.90;;;;;;21020175;28;20028;-78
2022/09/20 00:12:30;;;;;;;1.93;1.00;;;7.50;99.90;;;;;;21019058;28;20061;-78
2022/09/20 00:22:31;;;;;;;4.63;1.10;;;7.30;99.90;;;;;;21015677;28;20032;-76
2022/09/20 00:32:32;;;;;;;7.40;1.07;;;7.40;99.90;;;;;;21013047;28;20071;-78
2022/09/20 00:42:33;;;;;;;3.00;1.37;;;7.20;99.90;;;;;;21007178;28;20029;-78
2022/09/20 00:52:35;;;;;;;1.63;1.00;;;7.00;99.90;;;;;;20986004;28;20115;-77
2022/09/20 01:02:46;;;;;;;6.07;0.85;;;6.70;99.90;;;;;;21010433;28;20036;-78
2022/09/20 01:12:50;;;;;;;2.87;1.30;;;6.40;99.90;;;;;;21002068;28;20040;-76
2022/09/20 01:23:06;;;;;;;2.78;1.13;;;6.40;99.90;;;;;;21067977;22;20555;-76
2022/09/20 01:33:10;;;;;;;5.88;1.02;;;6.30;99.90;;;;;;21086034;28;20028;-75
2022/09/20 01:43:30;;;;;;;2.90;0.90;;;6.20;99.90;;;;;;21085534;28;20512;-76
2022/09/20 01:53:37;;;;;;;11.10;1.58;;;6.20;99.90;;;;;;21084214;28;20036;-75
2022/09/20 02:03:47;;;;;;;3.05;1.23;;;6.10;99.90;;;;;;21083409;28;20028;-75
2022/09/20 02:14:22;;;;;;;7.65;1.08;;;6.00;99.90;;;;;;21081973;28;20062;-75
2022/09/20 02:24:38;;;;;;;7.43;1.33;;;5.80;99.90;;;;;;21061697;28;20044;-75
2022/09/20 02:34:50;;;;;;;2.13;0.80;;;5.50;99.90;;;;;;21081077;28;20054;-75
2022/09/20 02:44:54;;;;;;;5.35;1.20;;;5.50;99.90;;;;;;21081003;28;20545;-75
2022/09/20 02:55:16;;;;;;;3.70;1.02;;;5.50;99.90;;;;;;21084834;28;20402;-76
2022/09/20 03:05:48;;;;;;;3.25;0.98;;;5.60;99.90;;;;;;21078527;28;20025;-76
2022/09/20 03:15:52;;;;;;;2.10;1.10;;;5.40;99.90;;;;;;21078637;28;20081;-76
2022/09/20 03:25:56;;;;;;;3.08;1.20;;;5.20;99.90;;;;;;21076259;28;20032;-75
2022/09/20 03:36:28;;;;;;;2.30;1.25;;;5.20;99.90;;;;;;21077091;28;20375;-75
2022/09/20 03:46:36;;;;;;;4.70;1.47;;;5.10;99.90;;;;;;21075945;28;20028;-76
2022/09/20 03:56:49;;;;;;;1.63;1.17;;;5.00;99.90;;;;;;21075153;28;20493;-75
2022/09/20 04:07:03;;;;;;;6.80;1.80;;;5.00;99.90;;;;;;21073563;28;20032;-76
2022/09/20 04:17:13;;;;;;;4.57;1.70;;;4.80;99.90;;;;;;21074430;28;20471;-76
2022/09/20 04:27:24;;;;;;;4.53;1.60;;;4.60;99.90;;;;;;21074708;28;20036;-75
2022/09/20 04:37:32;;;;;;;5.33;1.70;;;4.70;99.90;;;;;;21083374;28;20078;-75
2022/09/20 04:47:42;;;;;;;6.95;1.73;;;4.40;99.90;;;;;;21097870;28;20027;-75
2022/09/20 04:58:24;;;;;;;7.70;1.55;;;4.50;99.90;;;;;;21088831;28;20073;-76
2022/09/20 05:08:49;;;;;;;4.20;2.20;;;4.50;99.90;;;;;;21088300;28;20040;-76
2022/09/20 05:19:11;;;;;;;8.95;1.88;;;4.30;99.90;;;;;;21087989;28;20032;-77
2022/09/20 05:29:44;;;;;;;3.78;1.95;;;4.40;99.90;;;;;;21085081;28;20402;-77
2022/09/20 05:40:01;;;;;;;2.58;1.70;;;4.30;99.90;;;;;;21081744;28;20036;-77
2022/09/20 05:50:13;;;;;;;5.18;1.88;;;4.40;99.90;;;;;;21083996;28;20513;-77
2022/09/20 06:00:25;;;;;;;6.35;2.40;;;5.00;99.90;;;;;;21085374;28;20039;-76
2022/09/20 06:10:32;;;;;;;8.75;1.80;;;5.70;99.90;;;;;;21083813;28;20024;-77
2022/09/20 06:20:42;;;;;;;8.63;2.13;;;6.70;99.90;;;;;;21082822;28;20038;-77
2022/09/20 06:30:46;;;;;;;9.00;3.20;;;7.60;99.90;;;;;;21083379;28;20035;-75
2022/09/20 06:51:09;;;;;;;7.20;1.67;;;8.70;99.90;;;;;;21079722;28;20065;-78
2022/09/20 07:01:09;;;;;;;5.87;2.77;;;9.20;99.90;;;;;;21079203;28;20544;-77
2022/09/20 07:11:15;;;;;;;6.50;1.93;;;9.70;99.90;;;;;;21079654;28;20063;-77
2022/09/20 07:21:17;;;;;;;6.75;1.50;;;10.60;99.90;;;;;;21096742;28;20500;-79
2022/09/20 07:31:20;;;;;;;3.38;1.13;;;11.20;99.90;;;;;;21136288;28;20032;-79
2022/09/20 07:41:23;;;;;;;3.60;1.60;;;11.70;99.90;;;;;;21133792;28;20390;-79
2022/09/20 07:51:24;;;;;;;7.18;1.83;;;12.20;99.90;;;;;;21132643;28;20463;-79
2022/09/20 08:01:25;;;;;;;4.37;1.93;;;12.90;99.90;;;;;;21121839;22;20047;-84
2022/09/20 08:11:28;;;;;;;6.60;1.47;;;12.90;99.90;;;;;;21085602;28;20047;-84
2022/09/20 08:21:36;;;;;;;3.95;1.67;;;14.40;99.90;;;;;;21083486;28;20056;-87
2022/09/20 08:31:40;;;;;;;6.47;1.40;;;14.40;99.90;;;;;;21088205;28;20224;-87
2022/09/20 08:41:49;;;;;;;3.05;1.33;;;14.80;99.90;;;;;;21075052;28;20340;-85
2022/09/20 08:51:50;;;;;;;5.30;1.15;;;15.30;99.90;;;;;;21077441;28;20028;-85
2022/09/20 09:01:52;;;;;;;6.27;1.07;;;14.90;99.90;;;;;;21071843;28;20032;-85
2022/09/20 09:11:55;;;;;;;8.07;1.50;;;16.30;99.90;;;;;;21077109;28;20320;-85
2022/09/20 09:21:59;;;;;;;10.65;1.35;;;16.70;99.90;;;;;;21093230;28;20106;-86
2022/09/20 09:32:19;;;;;;;2.95;0.70;;;18.00;99.90;;;;;;21082669;28;20173;-85
2022/09/20 09:42:24;;;;;;;9.95;0.98;;;18.60;99.90;;;;;;21099450;28;20074;-85
2022/09/20 09:52:32;;;;;;;4.68;1.00;;;17.80;99.90;;;;;;21102868;28;20036;-85
2022/09/20 10:03:03;;;;;;;4.63;0.90;;;17.50;99.90;;;;;;21085362;28;20480;-87
2022/09/20 10:13:10;;;;;;;4.40;0.85;;;18.60;99.90;;;;;;21028411;28;20382;-85
2022/09/20 10:23:23;;;;;;;2.05;0.68;;;19.90;99.90;;;;;;20990557;28;20035;-86
2022/09/20 10:33:59;;;;;;;5.20;0.93;;;20.30;99.90;;;;;;20991108;28;20158;-84
2022/09/20 10:44:12;;;;;;;7.47;1.00;;;21.00;99.90;;;;;;21008689;28;20033;-85
2022/09/20 10:54:19;;;;;;;5.80;1.17;;;20.40;99.90;;;;;;21006939;28;20029;-85
2022/09/20 11:04:57;;;;;;;13.18;7.72;;;21.90;99.90;;;;;;21004343;28;20036;-83
2022/09/20 11:15:12;;;;;;;4.72;0.95;;;21.90;99.90;;;;;;21009370;28;20035;-84
2022/09/20 11:25:17;;;;;;;3.30;0.80;;;19.20;99.90;;;;;;20992413;28;20034;-86
2022/09/20 11:35:24;;;;;;;4.80;1.00;;;18.50;99.90;;;;;;21008780;28;20024;-83
2022/09/20 11:45:27;;;;;;;1.13;0.60;;;18.00;99.90;;;;;;20994487;28;20111;-83
2022/09/20 11:55:31;;;;;;;2.53;0.75;;;18.70;99.90;;;;;;21013268;28;20036;-84
2022/09/20 12:05:40;;;;;;;3.42;0.93;;;19.20;99.90;;;;;;21014271;28;20039;-84
2022/09/20 12:15:41;;;;;;;2.08;0.63;;;20.10;99.90;;;;;;21009641;28;20029;-83
2022/09/20 12:26:03;;;;;;;4.97;0.80;;;19.00;99.90;;;;;;21144034;28;20047;-84
2022/09/20 12:36:24;;;;;;;2.90;0.70;;;19.10;99.90;;;;;;21013856;28;20058;-84
2022/09/20 12:46:37;;;;;;;4.82;1.08;;;20.40;99.90;;;;;;21150461;28;20042;-84
2022/09/20 12:56:40;;;;;;;3.95;1.60;;;20.20;99.90;;;;;;21168760;28;20044;-81
2022/09/20 13:06:41;;;;;;;3.38;0.77;;;20.10;99.90;;;;;;21207906;28;20051;-84
2022/09/20 13:16:51;;;;;;;4.35;0.93;;;18.90;99.90;;;;;;21208023;28;20082;-84
2022/09/20 13:26:55;;;;;;;8.07;0.77;;;18.40;99.90;;;;;;21214834;28;20419;-82
2022/09/20 13:36:58;;;;;;;2.28;0.60;;;19.70;99.90;;;;;;21218299;28;20108;-81
2022/09/20 13:46:59;;;;;;;4.88;0.93;;;17.90;99.90;;;;;;21204757;28;20086;-84
2022/09/20 13:57:02;;;;;;;;;;;18.00;99.90;;;;;;21206798;28;20039;-84
2022/09/20 14:07:05;;;;;;;4.50;0.97;;;17.60;99.90;;;;;;21203166;28;19926;-82
2022/09/20 14:17:08;;;;;;;3.22;0.80;;;17.70;99.90;;;;;;21200982;28;20073;-81
2022/09/20 14:27:19;;;;;;;7.55;0.98;;;17.60;99.90;;;;;;21218412;28;20027;-81
2022/09/20 14:37:45;;;;;;;3.70;0.93;;;17.20;99.90;;;;;;21217562;28;20028;-81
2022/09/20 14:47:54;;;;;;;5.10;0.82;;;17.20;99.90;;;;;;21216943;28;20070;-83
2022/09/20 14:57:58;;;;;;;2.20;0.75;;;16.40;99.90;;;;;;21174388;28;20051;-82
2022/09/20 15:07:59;;;;;;;2.75;0.70;;;16.30;99.90;;;;;;21122203;28;20082;-81
2022/09/20 15:18:02;;;;;;;;;;;16.30;99.90;;;;;;21132770;28;20058;-80
2022/09/20 15:28:03;;;;;;;3.33;0.60;;;15.60;99.90;;;;;;21112695;28;19967;-82
2022/09/20 15:38:06;;;;;;;1.73;0.90;;;15.40;99.90;;;;;;21119283;28;20038;-82
2022/09/20 15:48:08;;;;;;;2.63;0.68;;;15.10;99.90;;;;;;21100892;28;20065;-81
2022/09/20 15:58:12;;;;;;;2.38;0.68;;;15.10;99.90;;;;;;21118500;28;20032;-81
2022/09/20 16:08:13;;;;;;;3.58;0.85;;;14.80;99.90;;;;;;21106794;28;20131;-81
2022/09/20 16:28:34;;;;;;;2.67;1.15;;;14.80;99.90;;;;;;21100343;28;20036;-82
2022/09/20 16:38:37;;;;;;;;;;;14.40;99.90;;;;;;21126656;28;20085;-82
2022/09/20 16:48:38;;;;;;;2.00;0.80;;;14.30;99.90;;;;;;21108101;28;19916;-80
2022/09/20 16:58:40;;;;;;;2.03;1.20;;;14.40;99.90;;;;;;21137376;28;20102;-80
2022/09/20 17:08:43;;;;;;;3.63;1.20;;;13.90;99.90;;;;;;21192087;28;20067;-81
2022/09/20 17:18:44;;;;;;;2.10;1.10;;;13.70;99.90;;;;;;21174187;28;20123;-82
2022/09/20 17:28:50;;;;;;;4.07;1.33;;;13.90;99.90;;;;;;21135224;28;20031;-82
2022/09/20 17:38:53;;;;;;;3.80;1.20;;;14.00;99.90;;;;;;21132909;28;20139;-80
2022/09/20 17:48:56;;;;;;;3.58;1.25;;;13.80;99.90;;;;;;21126702;28;20534;-82
2022/09/20 17:58:59;;;;;;;4.13;1.20;;;13.30;99.90;;;;;;21095154;28;20093;-82
2022/09/20 18:09:06;;;;;;;2.92;1.40;;;13.00;99.90;;;;;;21106376;28;20369;-82
2022/09/20 18:19:07;;;;;;;2.70;1.42;;;12.80;99.90;;;;;;21101022;28;20049;-81
2022/09/20 18:29:10;;;;;;;3.00;1.40;;;12.70;99.90;;;;;;21175258;28;20032;-81
2022/09/20 18:39:11;;;;;;;4.82;1.35;;;12.60;99.90;;;;;;21190080;28;20028;-81
2022/09/20 18:49:15;;;;;;;5.90;1.50;;;12.50;99.90;;;;;;21164863;28;20052;-82
2022/09/20 18:59:24;;;;;;;7.18;1.50;;;12.50;99.90;;;;;;21123819;28;20039;-82
2022/09/20 19:09:52;;;;;;;3.08;1.10;;;12.50;99.90;;;;;;21106420;28;20036;-83
2022/09/20 19:20:02;;;;;;;6.25;1.50;;;12.50;99.90;;;;;;21096316;22;20040;-79
2022/09/20 19:30:06;;;;;;;3.22;1.30;;;12.40;99.90;;;;;;20996198;28;20063;-81
2022/09/20 19:40:53;;;;;;;3.05;1.33;;;12.30;99.90;;;;;;21005463;28;20497;-80
2022/09/20 19:50:55;;;;;;;5.15;1.95;;;12.00;99.90;;;;;;21000438;28;20367;-81
2022/09/20 20:00:57;;;;;;;6.95;1.90;;;11.70;99.90;;;;;;21006160;28;20055;-79
2022/09/20 20:11:07;;;;;;;10.02;1.67;;;11.60;99.90;;;;;;20999825;28;20024;-80
2022/09/20 20:21:35;;;;;;;3.00;1.63;;;11.50;99.90;;;;;;20994360;28;20509;-81
2022/09/20 20:31:35;;;;;;;5.63;1.90;;;11.40;99.90;;;;;;21008330;28;20090;-80
2022/09/20 20:41:37;;;;;;;2.77;1.60;;;11.40;99.90;;;;;;20993473;28;20060;-81
2022/09/20 20:51:38;;;;;;;;;;;11.20;99.90;;;;;;20991228;28;20090;-79
2022/09/20 21:01:44;;;;;;;2.55;1.50;;;11.10;99.90;;;;;;21010018;28;20278;-80
2022/09/20 21:11:47;;;;;;;8.18;1.60;;;11.10;99.90;;;;;;21009974;28;20021;-80
2022/09/20 21:21:48;;;;;;;5.43;1.77;;;10.90;99.90;;;;;;21005062;28;20037;-79
2022/09/20 21:31:48;;;;;;;7.67;1.47;;;10.60;99.90;;;;;;21018211;28;20026;-80
2022/09/20 21:41:50;;;;;;;4.80;1.53;;;10.20;99.90;;;;;;21017463;28;20051;-80
2022/09/20 21:51:52;;;;;;;;;;;10.10;99.90;;;;;;21016996;28;20505;-80
2022/09/20 22:01:53;;;;;;;2.03;1.45;;;10.10;99.90;;;;;;20981584;28;19958;-78
2022/09/20 22:11:54;;;;;;;2.55;1.38;;;10.20;99.90;;;;;;20998572;28;20036;-80
2022/09/20 22:21:55;;;;;;;3.70;1.60;;;10.10;99.90;;;;;;21000644;28;20078;-79
2022/09/20 22:31:56;;;;;;;7.90;1.53;;;10.10;99.90;;;;;;21016823;28;20450;-79
2022/09/20 22:41:56;;;;;;;4.03;1.43;;;10.20;99.90;;;;;;20999671;28;20032;-80
2022/09/20 22:51:57;;;;;;;2.10;1.50;;;10.20;99.90;;;;;;21000401;28;20086;-81
2022/09/20 23:01:58;;;;;;;4.50;1.50;;;10.20;99.90;;;;;;21015318;28;20048;-79
2022/09/20 23:11:59;;;;;;;2.47;1.40;;;10.30;99.90;;;;;;21013975;28;20483;-81
2022/09/20 23:22:00;;;;;;;3.33;1.17;;;10.30;99.90;;;;;;21013320;28;20034;-80
2022/09/20 23:32:01;;;;;;;2.20;1.20;;;10.30;99.90;;;;;;21012483;28;20029;-80
2022/09/20 23:42:01;;;;;;;2.80;1.53;;;10.10;99.90;;;;;;20993788;28;20290;-81
2022/09/20 23:52:02;;;;;;;2.77;1.50;;;10.00;99.90;;;;;;20994628;28;20025;-81
